Time;durP1;ratioP1;P1;durP2;ratioP2;P2;SDS_P1;SDS_P2;PMS_P1;PMS_P2;Temp;Humidity;BMP_temperature;BMP_pressure;BME280_temperature;BME280_humidity;BME280_pressure;Samples;Min_cycle;Max_cycle;Signal;HPM_P1;HPM_P2
2021/08/17 00:01:06;;;;;;;26.80;7.50;;;14.70;99.90;;;;;;4960704;28;20205;-72
2021/08/17 00:03:33;;;;;;;12.82;4.97;;;14.70;99.90;;;;;;4971961;28;20198;-70
2021/08/17 00:06:01;;;;;;;30.35;7.05;;;14.80;99.90;;;;;;4966957;28;20201;-69
2021/08/17 00:08:28;;;;;;;19.17;6.13;;;14.80;99.90;;;;;;4965912;28;20198;-71
2021/08/17 00:10:55;;;;;;;15.23;6.30;;;14.80;99.90;;;;;;4967055;28;20210;-70
2021/08/17 00:13:23;;;;;;;20.98;5.95;;;14.80;99.90;;;;;;4966442;28;20205;-71
2021/08/17 00:15:50;;;;;;;12.85;5.65;;;14.80;99.90;;;;;;4975926;28;20209;-71
2021/08/17 00:18:18;;;;;;;24.17;7.22;;;14.80;99.90;;;;;;4981560;28;20230;-71
2021/08/17 00:20:46;;;;;;;15.20;5.93;;;14.70;99.90;;;;;;4973061;28;20211;-71
2021/08/17 00:23:13;;;;;;;26.30;6.15;;;14.70;99.90;;;;;;4978019;28;20206;-72
2021/08/17 00:25:42;;;;;;;21.67;5.88;;;14.60;99.90;;;;;;4970947;28;20586;-70
2021/08/17 00:28:10;;;;;;;19.15;6.65;;;14.60;99.90;;;;;;4978365;28;20229;-71
2021/08/17 00:30:38;;;;;;;28.98;7.00;;;14.60;99.90;;;;;;4969090;28;20326;-73
2021/08/17 00:33:06;;;;;;;23.75;6.65;;;14.50;99.90;;;;;;4976726;28;20213;-72
2021/08/17 00:35:36;;;;;;;20.17;5.25;;;14.50;99.90;;;;;;4969478;28;20213;-70
2021/08/17 00:38:04;;;;;;;17.27;6.13;;;14.50;99.90;;;;;;4968198;28;20221;-72
2021/08/17 00:40:31;;;;;;;12.48;5.45;;;14.50;99.90;;;;;;4963431;28;20202;-71
2021/08/17 00:42:58;;;;;;;19.40;6.07;;;14.50;99.90;;;;;;4973354;28;20202;-70
2021/08/17 00:45:27;;;;;;;20.70;5.85;;;14.60;99.90;;;;;;4981124;28;20202;-70
2021/08/17 00:47:55;;;;;;;17.45;6.35;;;14.60;99.90;;;;;;4978185;28;20236;-71
2021/08/17 00:50:24;;;;;;;20.60;6.35;;;14.60;99.90;;;;;;4975087;28;20216;-72
2021/08/17 00:52:54;;;;;;;19.73;7.22;;;14.70;99.90;;;;;;4979834;28;20547;-71
2021/08/17 00:55:22;;;;;;;18.02;6.78;;;14.60;99.90;;;;;;4963232;28;20564;-71
2021/08/17 00:57:49;;;;;;;24.42;6.40;;;14.70;99.90;;;;;;4965219;28;20230;-71
2021/08/17 01:00:17;;;;;;;16.50;5.82;;;14.70;99.90;;;;;;4970154;28;20213;-72
2021/08/17 01:02:45;;;;;;;19.30;6.20;;;14.70;99.90;;;;;;4974359;28;20205;-72
2021/08/17 01:05:13;;;;;;;22.20;5.05;;;14.60;99.90;;;;;;4974045;28;20212;-71
2021/08/17 01:07:41;;;;;;;20.77;5.95;;;14.70;99.90;;;;;;4970717;28;20222;-72
2021/08/17 01:10:11;;;;;;;11.95;6.40;;;14.70;99.90;;;;;;4972417;28;20214;-72
2021/08/17 01:12:39;;;;;;;15.15;7.47;;;14.60;99.90;;;;;;4968867;28;20195;-72
2021/08/17 01:15:08;;;;;;;14.93;5.45;;;14.70;99.90;;;;;;4971053;28;20295;-71
2021/08/17 01:17:35;;;;;;;13.57;5.75;;;14.70;99.90;;;;;;4967151;28;20238;-72
2021/08/17 01:20:03;;;;;;;12.15;4.90;;;14.60;99.90;;;;;;4972015;28;20202;-72
2021/08/17 01:22:30;;;;;;;15.43;6.68;;;14.50;99.90;;;;;;4971125;28;20250;-72
2021/08/17 01:24:57;;;;;;;18.85;5.85;;;14.60;99.90;;;;;;4963182;28;20195;-72
2021/08/17 01:27:25;;;;;;;11.02;5.20;;;14.60;99.90;;;;;;4966785;28;20689;-72
2021/08/17 01:29:52;;;;;;;24.25;5.25;;;14.60;99.90;;;;;;4964393;28;20210;-72
2021/08/17 01:32:19;;;;;;;13.98;5.50;;;14.60;99.90;;;;;;4981983;28;20214;-72
2021/08/17 01:34:47;;;;;;;17.02;6.75;;;14.60;99.90;;;;;;4979643;28;20202;-72
2021/08/17 01:37:14;;;;;;;17.10;4.85;;;14.60;99.90;;;;;;4973869;28;20589;-72
2021/08/17 01:39:41;;;;;;;14.68;6.25;;;14.70;99.90;;;;;;4971905;28;20203;-72
2021/08/17 01:42:08;;;;;;;15.68;5.30;;;14.70;99.90;;;;;;4961534;28;20211;-72
2021/08/17 01:44:38;;;;;;;16.02;5.68;;;14.70;99.90;;;;;;4974870;28;20206;-72
2021/08/17 01:47:05;;;;;;;17.27;4.85;;;14.60;99.90;;;;;;4962858;28;20701;-71
2021/08/17 01:49:32;;;;;;;15.68;5.40;;;14.60;99.90;;;;;;4968130;28;20533;-72
2021/08/17 01:51:59;;;;;;;19.25;4.53;;;14.70;99.90;;;;;;4969056;28;20218;-71
2021/08/17 01:54:26;;;;;;;15.43;5.35;;;14.70;99.90;;;;;;4966075;28;20195;-72
2021/08/17 01:56:53;;;;;;;11.35;5.30;;;14.70;99.90;;;;;;4975039;28;20603;-72
2021/08/17 01:59:20;;;;;;;11.77;5.15;;;14.70;99.90;;;;;;4975775;28;20606;-72
2021/08/17 02:01:49;;;;;;;14.55;5.55;;;14.70;99.90;;;;;;4979282;28;20198;-72
2021/08/17 02:04:16;;;;;;;18.10;5.00;;;14.60;99.90;;;;;;4975522;28;20202;-73
2021/08/17 02:06:43;;;;;;;13.82;5.05;;;14.70;99.90;;;;;;4976823;28;20218;-72
2021/08/17 02:09:11;;;;;;;14.57;6.60;;;14.70;99.90;;;;;;4975402;28;20210;-72
2021/08/17 02:11:38;;;;;;;15.02;6.05;;;14.70;99.90;;;;;;4966896;28;20674;-71
2021/08/17 02:14:05;;;;;;;18.23;6.10;;;14.70;99.90;;;;;;4967264;28;20594;-72
2021/08/17 02:16:33;;;;;;;22.88;6.75;;;14.70;99.90;;;;;;4974974;28;20229;-70
2021/08/17 02:19:01;;;;;;;19.90;5.35;;;14.70;99.90;;;;;;4976492;28;20225;-71
2021/08/17 02:21:28;;;;;;;12.80;6.00;;;14.70;99.90;;;;;;4975133;28;20205;-72
2021/08/17 02:23:55;;;;;;;15.50;5.43;;;14.70;99.90;;;;;;4971977;28;20194;-73
2021/08/17 02:26:22;;;;;;;19.75;6.25;;;14.70;99.90;;;;;;4970805;28;20231;-72
2021/08/17 02:28:49;;;;;;;13.23;7.05;;;14.80;99.90;;;;;;4959074;28;20245;-73
2021/08/17 02:31:17;;;;;;;19.70;6.30;;;14.70;99.90;;;;;;4975102;28;20206;-73
2021/08/17 02:33:44;;;;;;;14.68;5.75;;;14.70;99.90;;;;;;4974886;28;20198;-73
2021/08/17 02:36:12;;;;;;;15.95;5.93;;;14.70;99.90;;;;;;4974613;28;20587;-73
2021/08/17 02:38:39;;;;;;;28.80;6.18;;;14.70;99.90;;;;;;4987552;28;20233;-72
2021/08/17 02:41:06;;;;;;;21.55;6.25;;;14.70;99.90;;;;;;4970457;28;20216;-72
2021/08/17 02:43:34;;;;;;;17.10;6.90;;;14.60;99.90;;;;;;4973914;28;20210;-72
2021/08/17 02:46:01;;;;;;;21.73;7.28;;;14.60;99.90;;;;;;4982756;28;20218;-73
2021/08/17 02:48:28;;;;;;;21.45;5.97;;;14.60;99.90;;;;;;4967055;28;20206;-72
2021/08/17 02:50:55;;;;;;;14.75;5.75;;;14.60;99.90;;;;;;4973738;28;20198;-73
2021/08/17 02:53:24;;;;;;;15.43;6.63;;;14.50;99.90;;;;;;4970141;28;20614;-72
2021/08/17 02:55:51;;;;;;;10.82;6.03;;;14.50;99.90;;;;;;4960697;28;20217;-73
2021/08/17 02:58:18;;;;;;;11.15;5.85;;;14.50;99.90;;;;;;4972739;28;20238;-73
2021/08/17 03:00:46;;;;;;;15.45;5.53;;;14.50;99.90;;;;;;4974896;28;20202;-73
2021/08/17 03:03:13;;;;;;;15.70;7.07;;;14.50;99.90;;;;;;4973334;28;20210;-73
2021/08/17 03:05:40;;;;;;;25.70;6.43;;;14.50;99.90;;;;;;4968386;28;20581;-73
2021/08/17 03:08:08;;;;;;;15.23;6.95;;;14.60;99.90;;;;;;4974309;28;20225;-72
2021/08/17 03:10:38;;;;;;;11.75;6.40;;;14.50;99.90;;;;;;4977422;28;20194;-73
2021/08/17 03:13:07;;;;;;;14.80;5.70;;;14.50;99.90;;;;;;4973579;28;20560;-73
2021/08/17 03:15:35;;;;;;;16.23;5.28;;;14.50;99.90;;;;;;4974016;28;20206;-73
2021/08/17 03:18:03;;;;;;;23.73;5.85;;;14.50;99.90;;;;;;4978633;28;20287;-74
2021/08/17 03:20:31;;;;;;;13.77;5.38;;;14.50;99.90;;;;;;4981438;28;20214;-73
2021/08/17 03:22:59;;;;;;;16.58;5.78;;;14.40;99.90;;;;;;4982649;28;20538;-73
2021/08/17 03:25:27;;;;;;;17.05;5.35;;;14.40;99.90;;;;;;4966249;28;20197;-73
2021/08/17 03:27:56;;;;;;;15.10;5.75;;;14.40;99.90;;;;;;4969362;28;20269;-73
2021/08/17 03:30:26;;;;;;;15.95;5.50;;;14.40;99.90;;;;;;4970383;28;20213;-72
2021/08/17 03:32:54;;;;;;;23.58;6.88;;;14.40;99.90;;;;;;4973860;28;20205;-73
2021/08/17 03:35:22;;;;;;;20.40;7.40;;;14.40;99.90;;;;;;4971433;28;20206;-72
2021/08/17 03:37:49;;;;;;;13.45;5.68;;;14.40;99.90;;;;;;4966158;28;20233;-73
2021/08/17 03:40:19;;;;;;;12.32;4.82;;;14.40;99.90;;;;;;4966344;28;20211;-73
2021/08/17 03:42:47;;;;;;;13.73;5.32;;;14.40;99.90;;;;;;4966118;28;20217;-73
2021/08/17 03:45:18;;;;;;;14.07;4.75;;;14.40;99.90;;;;;;4966594;28;20201;-73
2021/08/17 03:47:45;;;;;;;10.82;5.18;;;14.40;99.90;;;;;;4971303;28;20222;-73
2021/08/17 03:50:14;;;;;;;10.82;5.00;;;14.40;99.90;;;;;;4973654;28;20198;-73
2021/08/17 03:52:43;;;;;;;23.92;5.97;;;14.40;99.90;;;;;;4981904;28;20214;-73
2021/08/17 03:55:11;;;;;;;15.55;4.82;;;14.40;99.90;;;;;;4965711;28;20213;-73
2021/08/17 03:57:39;;;;;;;12.07;4.43;;;14.40;99.90;;;;;;4968236;28;20237;-73
2021/08/17 04:00:08;;;;;;;11.80;4.93;;;14.30;99.90;;;;;;4972710;28;20199;-73
2021/08/17 04:02:38;;;;;;;13.45;5.40;;;14.40;99.90;;;;;;4971997;28;20208;-73
2021/08/17 04:05:06;;;;;;;18.45;5.28;;;14.40;99.90;;;;;;4977684;28;20201;-73
2021/08/17 04:07:33;;;;;;;11.05;4.72;;;14.40;99.90;;;;;;4973646;28;20218;-72
2021/08/17 04:10:01;;;;;;;12.43;5.07;;;14.40;99.90;;;;;;4974135;28;20299;-73
2021/08/17 04:12:29;;;;;;;11.02;4.28;;;14.40;99.90;;;;;;4972624;28;20547;-73
2021/08/17 04:14:57;;;;;;;11.18;5.78;;;14.50;99.90;;;;;;4971537;28;20206;-73
2021/08/17 04:17:24;;;;;;;13.38;5.47;;;14.50;99.90;;;;;;4968926;28;20245;-73
2021/08/17 04:19:52;;;;;;;10.93;3.45;;;14.40;99.90;;;;;;4969262;28;20213;-73
2021/08/17 04:22:20;;;;;;;15.02;5.35;;;14.40;99.90;;;;;;4971228;28;20205;-73
2021/08/17 04:24:47;;;;;;;9.77;6.43;;;14.40;99.90;;;;;;4970623;28;20737;-73
2021/08/17 04:27:14;;;;;;;15.95;7.50;;;14.40;99.90;;;;;;4973835;28;20226;-73
2021/08/17 04:29:43;;;;;;;18.23;4.70;;;14.40;99.90;;;;;;4962713;28;20202;-72
2021/08/17 04:32:11;;;;;;;9.93;3.90;;;14.30;99.90;;;;;;4975342;28;20547;-73
2021/08/17 04:34:38;;;;;;;9.50;4.75;;;14.20;99.90;;;;;;4983530;28;20209;-72
2021/08/17 04:37:07;;;;;;;11.95;5.22;;;14.20;99.90;;;;;;4978273;28;20225;-72
2021/08/17 04:39:34;;;;;;;10.75;5.15;;;14.20;99.90;;;;;;4977502;28;20301;-73
2021/08/17 04:42:01;;;;;;;13.35;4.82;;;14.30;99.90;;;;;;4977091;28;20241;-72
2021/08/17 04:44:28;;;;;;;16.95;5.80;;;14.30;99.90;;;;;;4975664;28;20213;-72
2021/08/17 04:46:56;;;;;;;15.25;5.70;;;14.30;99.90;;;;;;4975945;28;20695;-72
2021/08/17 04:49:23;;;;;;;15.25;4.78;;;14.30;99.90;;;;;;4975837;28;20213;-70
2021/08/17 04:51:50;;;;;;;14.68;5.47;;;14.30;99.90;;;;;;4984378;28;20218;-73
2021/08/17 04:54:18;;;;;;;19.02;5.60;;;14.30;99.90;;;;;;4966922;28;20211;-72
2021/08/17 04:56:46;;;;;;;9.80;5.50;;;14.30;99.90;;;;;;4968779;28;20248;-70
2021/08/17 04:59:13;;;;;;;10.63;5.47;;;14.30;99.90;;;;;;4977091;28;20222;-70
2021/08/17 05:01:40;;;;;;;24.58;5.45;;;14.20;99.90;;;;;;4973788;28;20198;-73
2021/08/17 05:04:08;;;;;;;7.65;4.75;;;14.20;99.90;;;;;;4967014;28;20207;-73
2021/08/17 05:06:35;;;;;;;13.85;5.07;;;14.10;99.90;;;;;;4974719;28;20284;-71
2021/08/17 05:09:04;;;;;;;12.43;5.10;;;14.20;99.90;;;;;;4966481;28;20599;-68
2021/08/17 05:11:32;;;;;;;8.60;5.13;;;14.20;99.90;;;;;;4975912;28;20260;-68
2021/08/17 05:13:59;;;;;;;9.27;4.80;;;14.20;99.90;;;;;;4968704;28;20203;-69
2021/08/17 05:16:27;;;;;;;11.75;4.80;;;14.30;99.90;;;;;;4970010;28;20232;-71
2021/08/17 05:18:54;;;;;;;10.70;4.43;;;14.40;99.90;;;;;;4981790;28;20565;-71
2021/08/17 05:21:22;;;;;;;7.38;4.10;;;14.40;99.90;;;;;;4969401;28;20210;-72
2021/08/17 05:23:49;;;;;;;6.05;4.05;;;14.50;99.90;;;;;;4971280;28;20317;-72
2021/08/17 05:26:16;;;;;;;12.32;4.78;;;14.50;99.90;;;;;;4967286;28;20198;-72
2021/08/17 05:28:45;;;;;;;14.55;4.82;;;14.50;99.90;;;;;;4972765;28;20198;-72
2021/08/17 05:31:12;;;;;;;11.40;3.35;;;14.50;99.90;;;;;;4975825;28;20211;-72
2021/08/17 05:33:39;;;;;;;11.13;3.20;;;14.50;99.90;;;;;;4975593;28;20198;-71
2021/08/17 05:36:07;;;;;;;13.45;4.30;;;14.50;99.90;;;;;;4971158;28;20209;-72
2021/08/17 05:38:36;;;;;;;12.60;4.28;;;14.60;99.90;;;;;;4974939;28;20214;-72
2021/08/17 05:41:03;;;;;;;14.82;4.00;;;14.50;99.90;;;;;;4975641;28;20556;-72
2021/08/17 05:43:31;;;;;;;20.75;5.03;;;14.50;99.90;;;;;;4975234;28;20206;-72
2021/08/17 05:46:03;;;;;;;12.10;4.18;;;14.50;99.90;;;;;;4976106;28;20201;-72
2021/08/17 05:48:30;;;;;;;12.80;3.78;;;14.50;99.90;;;;;;4969179;28;20209;-72
2021/08/17 05:50:58;;;;;;;13.48;3.90;;;14.40;99.90;;;;;;4975386;28;20206;-70
2021/08/17 05:53:25;;;;;;;18.88;5.05;;;14.50;99.90;;;;;;4980165;28;20218;-70
2021/08/17 05:55:52;;;;;;;11.95;3.60;;;14.70;99.90;;;;;;4962896;28;20199;-71
2021/08/17 05:58:19;;;;;;;8.52;3.25;;;14.80;99.90;;;;;;4970035;28;20239;-71
2021/08/17 06:00:46;;;;;;;18.88;4.75;;;15.00;99.90;;;;;;4973146;28;20202;-69
2021/08/17 06:03:19;;;;;;;12.85;3.65;;;15.10;99.90;;;;;;4972692;28;20218;-75
2021/08/17 06:05:46;;;;;;;8.38;3.47;;;15.40;99.90;;;;;;4976165;28;20202;-72
2021/08/17 06:08:13;;;;;;;11.23;3.28;;;15.90;99.90;;;;;;4974914;28;20220;-75
2021/08/17 06:10:41;;;;;;;8.38;3.75;;;16.60;99.90;;;;;;4985085;28;20216;-76
2021/08/17 06:13:08;;;;;;;11.83;2.93;;;17.40;99.90;;;;;;4982785;28;20197;-74
2021/08/17 06:15:35;;;;;;;10.20;3.15;;;17.60;99.90;;;;;;4980434;28;20459;-73
2021/08/17 06:18:04;;;;;;;6.70;2.70;;;17.60;99.90;;;;;;4974785;28;20237;-71
2021/08/17 06:20:33;;;;;;;12.07;3.42;;;17.20;99.90;;;;;;4980669;28;20228;-74
2021/08/17 06:23:01;;;;;;;9.32;3.17;;;17.20;99.90;;;;;;4984921;28;20644;-75
2021/08/17 06:25:34;;;;;;;9.32;3.35;;;17.30;99.90;;;;;;4976286;28;20221;-71
